sensor_id;sensor_type;location;lat;lon;timestamp;P1;durP1;ratioP1;P2;durP2;ratioP2
43817;SDS011;29868;47.360;18.984;2022-08-11T06:18:24;2.42;;;1.23;;
43817;SDS011;29868;47.360;18.984;2022-08-11T06:20:55;3.35;;;1.42;;
43817;SDS011;29868;47.360;18.984;2022-08-11T06:23:29;5.45;;;1.42;;
43817;SDS011;29868;47.360;18.984;2022-08-11T06:25:56;3.15;;;1.40;;
43817;SDS011;29868;47.360;18.984;2022-08-11T06:28:34;2.45;;;1.30;;
43817;SDS011;29868;47.360;18.984;2022-08-11T06:31:08;2.78;;;1.58;;
43817;SDS011;29868;47.360;18.984;2022-08-11T06:33:37;2.35;;;1.30;;
43817;SDS011;29868;47.360;18.984;2022-08-11T06:36:29;3.53;;;1.50;;
43817;SDS011;29868;47.360;18.984;2022-08-11T06:39:16;5.03;;;1.52;;
43817;SDS011;29868;47.360;18.984;2022-08-11T06:41:48;3.13;;;1.23;;
43817;SDS011;29868;47.360;18.984;2022-08-11T06:44:28;3.42;;;1.50;;
43817;SDS011;29868;47.360;18.984;2022-08-11T06:47:03;4.22;;;1.60;;
43817;SDS011;29868;47.360;18.984;2022-08-11T06:49:36;2.22;;;1.33;;
43817;SDS011;29868;47.360;18.984;2022-08-11T06:52:28;6.55;;;1.52;;
43817;SDS011;29868;47.360;18.984;2022-08-11T06:54:56;3.13;;;1.38;;
43817;SDS011;29868;47.360;18.984;2022-08-11T06:57:33;4.50;;;1.50;;
43817;SDS011;29868;47.360;18.984;2022-08-11T07:00:19;2.67;;;1.40;;
43817;SDS011;29868;47.360;18.984;2022-08-11T07:03:10;4.15;;;1.60;;
43817;SDS011;29868;47.360;18.984;2022-08-11T07:05:57;2.83;;;1.40;;
43817;SDS011;29868;47.360;18.984;2022-08-11T07:14:40;1.73;;;1.20;;
43817;SDS011;29868;47.360;18.984;2022-08-11T07:17:37;5.03;;;1.40;;
43817;SDS011;29868;47.360;18.984;2022-08-11T07:20:08;4.30;;;1.50;;
43817;SDS011;29868;47.360;18.984;2022-08-11T07:22:54;2.40;;;1.20;;
43817;SDS011;29868;47.360;18.984;2022-08-11T07:25:42;3.42;;;1.60;;
43817;SDS011;29868;47.360;18.984;2022-08-11T07:28:29;2.65;;;1.25;;
43817;SDS011;29868;47.360;18.984;2022-08-11T07:31:17;1.98;;;1.10;;
43817;SDS011;29868;47.360;18.984;2022-08-11T07:33:50;2.63;;;1.33;;
43817;SDS011;29868;47.360;18.984;2022-08-11T07:36:22;4.55;;;1.50;;
43817;SDS011;29868;47.360;18.984;2022-08-11T07:38:51;5.03;;;1.20;;
43817;SDS011;29868;47.360;18.984;2022-08-11T07:41:23;5.55;;;1.38;;
43817;SDS011;29868;47.360;18.984;2022-08-11T07:43:54;3.15;;;1.20;;
43817;SDS011;29868;47.360;18.984;2022-08-11T07:46:51;3.80;;;1.20;;
43817;SDS011;29868;47.360;18.984;2022-08-11T07:49:36;2.55;;;1.40;;
43817;SDS011;29868;47.360;18.984;2022-08-11T07:52:22;2.90;;;1.40;;
43817;SDS011;29868;47.360;18.984;2022-08-11T07:55:00;4.28;;;1.85;;
43817;SDS011;29868;47.360;18.984;2022-08-11T07:57:30;2.85;;;1.20;;
43817;SDS011;29868;47.360;18.984;2022-08-11T08:00:15;3.15;;;1.30;;
43817;SDS011;29868;47.360;18.984;2022-08-11T08:03:00;4.32;;;1.40;;
43817;SDS011;29868;47.360;18.984;2022-08-11T08:05:47;1.73;;;1.20;;
43817;SDS011;29868;47.360;18.984;2022-08-11T08:08:32;2.33;;;1.30;;
43817;SDS011;29868;47.360;18.984;2022-08-11T08:11:18;3.83;;;1.40;;
43817;SDS011;29868;47.360;18.984;2022-08-11T08:14:04;6.05;;;1.40;;
43817;SDS011;29868;47.360;18.984;2022-08-11T08:16:50;5.10;;;1.35;;
43817;SDS011;29868;47.360;18.984;2022-08-11T08:19:34;2.05;;;1.25;;
43817;SDS011;29868;47.360;18.984;2022-08-11T08:22:00;4.35;;;1.40;;
43817;SDS011;29868;47.360;18.984;2022-08-11T08:24:27;3.70;;;1.27;;
43817;SDS011;29868;47.360;18.984;2022-08-11T08:26:54;2.50;;;1.30;;
43817;SDS011;29868;47.360;18.984;2022-08-11T08:29:22;3.25;;;1.40;;
43817;SDS011;29868;47.360;18.984;2022-08-11T08:32:07;5.28;;;1.50;;
43817;SDS011;29868;47.360;18.984;2022-08-11T08:34:35;4.95;;;1.33;;
43817;SDS011;29868;47.360;18.984;2022-08-11T08:37:02;2.03;;;1.20;;
43817;SDS011;29868;47.360;18.984;2022-08-11T08:39:29;1.70;;;1.10;;
43817;SDS011;29868;47.360;18.984;2022-08-11T08:41:57;3.10;;;1.40;;
43817;SDS011;29868;47.360;18.984;2022-08-11T08:44:24;3.10;;;1.30;;
43817;SDS011;29868;47.360;18.984;2022-08-11T08:46:53;2.17;;;1.20;;
43817;SDS011;29868;47.360;18.984;2022-08-11T08:49:33;4.68;;;1.30;;
43817;SDS011;29868;47.360;18.984;2022-08-11T08:52:03;2.70;;;1.25;;
43817;SDS011;29868;47.360;18.984;2022-08-11T08:54:38;4.75;;;1.60;;
43817;SDS011;29868;47.360;18.984;2022-08-11T08:57:07;4.30;;;1.27;;
43817;SDS011;29868;47.360;18.984;2022-08-11T08:59:39;3.08;;;1.30;;
43817;SDS011;29868;47.360;18.984;2022-08-11T09:02:06;3.42;;;1.30;;
43817;SDS011;29868;47.360;18.984;2022-08-11T09:04:36;3.05;;;1.15;;
43817;SDS011;29868;47.360;18.984;2022-08-11T09:07:07;2.42;;;1.30;;
43817;SDS011;29868;47.360;18.984;2022-08-11T09:09:36;4.40;;;1.30;;
43817;SDS011;29868;47.360;18.984;2022-08-11T09:12:06;3.13;;;1.33;;
43817;SDS011;29868;47.360;18.984;2022-08-11T09:14:33;3.00;;;1.20;;
43817;SDS011;29868;47.360;18.984;2022-08-11T09:17:19;3.00;;;1.40;;
43817;SDS011;29868;47.360;18.984;2022-08-11T09:19:46;4.60;;;1.50;;
43817;SDS011;29868;47.360;18.984;2022-08-11T09:22:18;5.10;;;1.30;;
43817;SDS011;29868;47.360;18.984;2022-08-11T09:25:04;2.05;;;1.20;;
43817;SDS011;29868;47.360;18.984;2022-08-11T09:27:50;3.13;;;1.30;;
43817;SDS011;29868;47.360;18.984;2022-08-11T09:30:17;3.55;;;1.17;;
43817;SDS011;29868;47.360;18.984;2022-08-11T09:32:45;2.53;;;1.40;;
43817;SDS011;29868;47.360;18.984;2022-08-11T09:35:10;2.63;;;1.50;;
43817;SDS011;29868;47.360;18.984;2022-08-11T09:37:36;2.55;;;1.20;;
43817;SDS011;29868;47.360;18.984;2022-08-11T09:40:22;1.73;;;1.20;;
43817;SDS011;29868;47.360;18.984;2022-08-11T09:42:56;1.88;;;1.30;;
43817;SDS011;29868;47.360;18.984;2022-08-11T09:45:42;4.20;;;1.20;;
43817;SDS011;29868;47.360;18.984;2022-08-11T09:48:14;4.72;;;1.58;;
43817;SDS011;29868;47.360;18.984;2022-08-11T09:50:41;1.75;;;1.25;;
43817;SDS011;29868;47.360;18.984;2022-08-11T09:53:09;1.90;;;1.23;;
43817;SDS011;29868;47.360;18.984;2022-08-11T09:55:36;2.38;;;1.25;;
43817;SDS011;29868;47.360;18.984;2022-08-11T09:58:02;3.60;;;1.25;;
43817;SDS011;29868;47.360;18.984;2022-08-11T10:00:46;2.72;;;1.10;;
43817;SDS011;29868;47.360;18.984;2022-08-11T10:03:23;1.92;;;1.20;;
43817;SDS011;29868;47.360;18.984;2022-08-11T10:05:53;3.92;;;1.17;;
43817;SDS011;29868;47.360;18.984;2022-08-11T10:08:41;2.92;;;1.30;;
43817;SDS011;29868;47.360;18.984;2022-08-11T10:11:10;1.90;;;1.08;;
43817;SDS011;29868;47.360;18.984;2022-08-11T10:13:40;2.97;;;1.20;;
43817;SDS011;29868;47.360;18.984;2022-08-11T10:16:28;1.95;;;1.10;;
43817;SDS011;29868;47.360;18.984;2022-08-11T10:18:57;3.22;;;1.20;;
43817;SDS011;29868;47.360;18.984;2022-08-11T10:24:02;3.35;;;1.30;;
43817;SDS011;29868;47.360;18.984;2022-08-11T10:26:48;3.03;;;1.17;;
43817;SDS011;29868;47.360;18.984;2022-08-11T10:29:32;2.72;;;1.30;;
43817;SDS011;29868;47.360;18.984;2022-08-11T10:32:22;2.55;;;1.27;;
43817;SDS011;29868;47.360;18.984;2022-08-11T10:35:08;2.45;;;1.17;;
43817;SDS011;29868;47.360;18.984;2022-08-11T10:37:36;1.60;;;1.05;;
43817;SDS011;29868;47.360;18.984;2022-08-11T10:40:05;3.83;;;1.10;;
43817;SDS011;29868;47.360;18.984;2022-08-11T10:42:33;2.22;;;1.08;;
43817;SDS011;29868;47.360;18.984;2022-08-11T10:48:02;2.38;;;1.27;;
43817;SDS011;29868;47.360;18.984;2022-08-11T10:50:29;1.40;;;1.08;;
43817;SDS011;29868;47.360;18.984;2022-08-11T10:53:14;1.70;;;1.05;;
43817;SDS011;29868;47.360;18.984;2022-08-11T10:56:00;1.80;;;1.25;;
43817;SDS011;29868;47.360;18.984;2022-08-11T10:58:45;2.08;;;1.20;;
43817;SDS011;29868;47.360;18.984;2022-08-11T11:01:13;1.77;;;1.10;;
43817;SDS011;29868;47.360;18.984;2022-08-11T11:03:40;2.75;;;1.15;;
43817;SDS011;29868;47.360;18.984;2022-08-11T11:06:22;1.50;;;1.00;;
43817;SDS011;29868;47.360;18.984;2022-08-11T11:09:27;1.73;;;1.05;;
43817;SDS011;29868;47.360;18.984;2022-08-11T11:11:49;2.75;;;1.10;;
43817;SDS011;29868;47.360;18.984;2022-08-11T11:14:36;3.00;;;1.20;;
43817;SDS011;29868;47.360;18.984;2022-08-11T11:17:34;1.77;;;1.00;;
43817;SDS011;29868;47.360;18.984;2022-08-11T11:20:27;1.50;;;1.10;;
43817;SDS011;29868;47.360;18.984;2022-08-11T11:37:00;1.15;;;0.80;;
43817;SDS011;29868;47.360;18.984;2022-08-11T11:39:28;5.22;;;1.30;;
43817;SDS011;29868;47.360;18.984;2022-08-11T11:41:56;1.05;;;0.77;;
43817;SDS011;29868;47.360;18.984;2022-08-11T11:44:24;1.55;;;0.90;;
43817;SDS011;29868;47.360;18.984;2022-08-11T11:46:50;2.97;;;1.10;;
43817;SDS011;29868;47.360;18.984;2022-08-11T11:49:17;2.83;;;0.90;;
43817;SDS011;29868;47.360;18.984;2022-08-11T11:51:46;1.55;;;1.00;;
43817;SDS011;29868;47.360;18.984;2022-08-11T11:54:14;1.95;;;1.00;;
43817;SDS011;29868;47.360;18.984;2022-08-11T11:56:40;1.42;;;0.90;;
43817;SDS011;29868;47.360;18.984;2022-08-11T11:59:07;2.38;;;1.30;;
43817;SDS011;29868;47.360;18.984;2022-08-11T12:01:53;1.25;;;0.90;;
43817;SDS011;29868;47.360;18.984;2022-08-11T12:04:20;2.28;;;0.90;;
43817;SDS011;29868;47.360;18.984;2022-08-11T12:06:46;3.30;;;1.10;;
43817;SDS011;29868;47.360;18.984;2022-08-11T12:09:13;1.50;;;0.85;;
43817;SDS011;29868;47.360;18.984;2022-08-11T12:11:42;1.02;;;0.90;;
43817;SDS011;29868;47.360;18.984;2022-08-11T12:14:27;1.25;;;0.90;;
43817;SDS011;29868;47.360;18.984;2022-08-11T12:16:53;2.72;;;1.00;;
43817;SDS011;29868;47.360;18.984;2022-08-11T12:19:22;1.45;;;0.93;;
43817;SDS011;29868;47.360;18.984;2022-08-11T12:21:49;1.30;;;1.00;;
43817;SDS011;29868;47.360;18.984;2022-08-11T12:24:35;1.48;;;0.90;;
43817;SDS011;29868;47.360;18.984;2022-08-11T12:27:20;2.15;;;0.90;;
43817;SDS011;29868;47.360;18.984;2022-08-11T12:29:52;2.25;;;0.90;;
43817;SDS011;29868;47.360;18.984;2022-08-11T12:32:21;2.08;;;0.90;;
43817;SDS011;29868;47.360;18.984;2022-08-11T12:34:48;2.63;;;0.80;;
43817;SDS011;29868;47.360;18.984;2022-08-11T12:37:15;2.10;;;0.90;;
43817;SDS011;29868;47.360;18.984;2022-08-11T12:39:48;2.53;;;0.88;;
43817;SDS011;29868;47.360;18.984;2022-08-11T12:42:35;2.55;;;0.90;;
43817;SDS011;29868;47.360;18.984;2022-08-11T12:45:22;3.28;;;0.82;;
43817;SDS011;29868;47.360;18.984;2022-08-11T12:47:57;1.55;;;0.90;;
43817;SDS011;29868;47.360;18.984;2022-08-11T12:50:45;1.25;;;0.85;;
43817;SDS011;29868;47.360;18.984;2022-08-11T12:53:35;2.17;;;0.80;;
43817;SDS011;29868;47.360;18.984;2022-08-11T12:56:07;2.88;;;0.85;;
43817;SDS011;29868;47.360;18.984;2022-08-11T12:58:52;2.35;;;0.93;;
43817;SDS011;29868;47.360;18.984;2022-08-11T13:01:38;2.78;;;0.98;;
43817;SDS011;29868;47.360;18.984;2022-08-11T13:04:22;1.95;;;0.90;;
43817;SDS011;29868;47.360;18.984;2022-08-11T13:07:05;2.10;;;0.80;;
43817;SDS011;29868;47.360;18.984;2022-08-11T13:09:31;1.50;;;0.90;;
43817;SDS011;29868;47.360;18.984;2022-08-11T13:11:56;1.00;;;0.80;;
43817;SDS011;29868;47.360;18.984;2022-08-11T13:14:41;1.58;;;0.95;;
43817;SDS011;29868;47.360;18.984;2022-08-11T13:17:07;2.25;;;0.80;;
43817;SDS011;29868;47.360;18.984;2022-08-11T13:19:48;1.20;;;0.90;;
43817;SDS011;29868;47.360;18.984;2022-08-11T13:22:19;0.88;;;0.70;;
43817;SDS011;29868;47.360;18.984;2022-08-11T13:24:46;3.40;;;0.90;;
43817;SDS011;29868;47.360;18.984;2022-08-11T13:27:14;1.20;;;0.90;;
43817;SDS011;29868;47.360;18.984;2022-08-11T13:29:42;2.78;;;0.93;;
43817;SDS011;29868;47.360;18.984;2022-08-11T13:32:10;2.38;;;1.00;;
43817;SDS011;29868;47.360;18.984;2022-08-11T13:34:38;6.18;;;1.17;;
43817;SDS011;29868;47.360;18.984;2022-08-11T13:37:06;1.52;;;0.95;;
43817;SDS011;29868;47.360;18.984;2022-08-11T13:39:34;3.72;;;0.98;;
43817;SDS011;29868;47.360;18.984;2022-08-11T13:42:01;2.63;;;0.85;;
43817;SDS011;29868;47.360;18.984;2022-08-11T13:44:29;1.67;;;0.80;;
43817;SDS011;29868;47.360;18.984;2022-08-11T13:46:59;2.88;;;0.73;;
43817;SDS011;29868;47.360;18.984;2022-08-11T13:49:28;1.42;;;1.00;;
43817;SDS011;29868;47.360;18.984;2022-08-11T13:51:55;1.35;;;0.77;;
43817;SDS011;29868;47.360;18.984;2022-08-11T13:54:33;2.25;;;1.00;;
43817;SDS011;29868;47.360;18.984;2022-08-11T13:57:03;1.75;;;0.90;;
43817;SDS011;29868;47.360;18.984;2022-08-11T13:59:31;1.85;;;0.80;;
43817;SDS011;29868;47.360;18.984;2022-08-11T14:02:00;1.00;;;0.65;;
43817;SDS011;29868;47.360;18.984;2022-08-11T14:07:07;3.08;;;0.95;;
43817;SDS011;29868;47.360;18.984;2022-08-11T14:09:35;1.40;;;0.88;;
43817;SDS011;29868;47.360;18.984;2022-08-11T14:12:06;1.33;;;0.90;;
43817;SDS011;29868;47.360;18.984;2022-08-11T14:14:58;1.40;;;0.77;;
43817;SDS011;29868;47.360;18.984;2022-08-11T14:17:28;2.58;;;0.93;;
43817;SDS011;29868;47.360;18.984;2022-08-11T14:19:56;2.33;;;0.90;;
43817;SDS011;29868;47.360;18.984;2022-08-11T14:22:25;1.58;;;0.80;;
43817;SDS011;29868;47.360;18.984;2022-08-11T14:24:51;1.83;;;1.00;;
43817;SDS011;29868;47.360;18.984;2022-08-11T14:27:17;1.48;;;1.00;;
43817;SDS011;29868;47.360;18.984;2022-08-11T14:29:50;1.55;;;0.90;;
43817;SDS011;29868;47.360;18.984;2022-08-11T14:32:18;2.13;;;0.80;;
43817;SDS011;29868;47.360;18.984;2022-08-11T14:34:44;0.88;;;0.70;;
43817;SDS011;29868;47.360;18.984;2022-08-11T14:37:13;1.30;;;1.08;;
43817;SDS011;29868;47.360;18.984;2022-08-11T14:39:47;1.13;;;0.90;;
43817;SDS011;29868;47.360;18.984;2022-08-11T14:42:16;1.80;;;0.80;;
43817;SDS011;29868;47.360;18.984;2022-08-11T14:45:03;2.95;;;0.90;;
43817;SDS011;29868;47.360;18.984;2022-08-11T14:47:50;2.03;;;0.90;;
43817;SDS011;29868;47.360;18.984;2022-08-11T14:50:20;1.80;;;1.00;;
43817;SDS011;29868;47.360;18.984;2022-08-11T14:52:48;3.60;;;1.00;;
43817;SDS011;29868;47.360;18.984;2022-08-11T14:55:16;1.27;;;0.90;;
43817;SDS011;29868;47.360;18.984;2022-08-11T14:58:02;3.65;;;0.95;;
43817;SDS011;29868;47.360;18.984;2022-08-11T15:00:29;3.42;;;0.80;;
43817;SDS011;29868;47.360;18.984;2022-08-11T15:02:56;0.88;;;0.75;;
43817;SDS011;29868;47.360;18.984;2022-08-11T15:05:38;2.03;;;0.80;;
43817;SDS011;29868;47.360;18.984;2022-08-11T15:08:12;3.75;;;1.00;;
43817;SDS011;29868;47.360;18.984;2022-08-11T15:10:39;4.53;;;1.00;;
43817;SDS011;29868;47.360;18.984;2022-08-11T15:13:04;1.73;;;0.88;;
43817;SDS011;29868;47.360;18.984;2022-08-11T15:15:30;2.30;;;1.00;;
43817;SDS011;29868;47.360;18.984;2022-08-11T15:18:16;1.80;;;0.80;;
43817;SDS011;29868;47.360;18.984;2022-08-11T15:20:44;4.38;;;0.90;;
43817;SDS011;29868;47.360;18.984;2022-08-11T15:23:28;3.63;;;0.90;;
43817;SDS011;29868;47.360;18.984;2022-08-11T15:29:27;1.80;;;0.80;;
43817;SDS011;29868;47.360;18.984;2022-08-11T15:32:15;1.00;;;0.80;;
43817;SDS011;29868;47.360;18.984;2022-08-11T15:35:02;1.55;;;0.85;;
43817;SDS011;29868;47.360;18.984;2022-08-11T15:37:48;1.20;;;1.00;;
43817;SDS011;29868;47.360;18.984;2022-08-11T15:40:22;3.88;;;0.82;;
43817;SDS011;29868;47.360;18.984;2022-08-11T15:43:14;3.45;;;0.90;;
43817;SDS011;29868;47.360;18.984;2022-08-11T15:46:29;3.13;;;1.00;;
43817;SDS011;29868;47.360;18.984;2022-08-11T15:49:08;1.27;;;0.82;;
43817;SDS011;29868;47.360;18.984;2022-08-11T15:51:36;3.03;;;0.90;;
43817;SDS011;29868;47.360;18.984;2022-08-11T15:54:07;0.95;;;0.80;;
43817;SDS011;29868;47.360;18.984;2022-08-11T15:56:36;1.67;;;1.00;;
43817;SDS011;29868;47.360;18.984;2022-08-11T15:59:05;1.50;;;0.70;;
43817;SDS011;29868;47.360;18.984;2022-08-11T16:01:52;1.13;;;0.90;;
43817;SDS011;29868;47.360;18.984;2022-08-11T16:04:38;2.65;;;1.52;;
43817;SDS011;29868;47.360;18.984;2022-08-11T16:07:07;6.50;;;1.38;;
43817;SDS011;29868;47.360;18.984;2022-08-11T16:09:47;1.67;;;0.90;;
43817;SDS011;29868;47.360;18.984;2022-08-11T16:12:20;3.47;;;0.88;;
43817;SDS011;29868;47.360;18.984;2022-08-11T16:14:50;1.83;;;0.90;;
43817;SDS011;29868;47.360;18.984;2022-08-11T16:17:49;1.15;;;0.70;;
43817;SDS011;29868;47.360;18.984;2022-08-11T16:20:21;1.80;;;0.95;;
43817;SDS011;29868;47.360;18.984;2022-08-11T16:22:50;2.05;;;0.70;;
43817;SDS011;29868;47.360;18.984;2022-08-11T16:25:19;2.80;;;0.82;;
43817;SDS011;29868;47.360;18.984;2022-08-11T16:27:57;1.33;;;1.10;;
43817;SDS011;29868;47.360;18.984;2022-08-11T16:30:36;2.15;;;0.82;;
43817;SDS011;29868;47.360;18.984;2022-08-11T16:33:04;1.52;;;0.82;;
43817;SDS011;29868;47.360;18.984;2022-08-11T16:35:34;3.20;;;1.00;;
43817;SDS011;29868;47.360;18.984;2022-08-11T16:38:20;1.85;;;0.77;;
43817;SDS011;29868;47.360;18.984;2022-08-11T16:41:02;4.70;;;1.20;;
43817;SDS011;29868;47.360;18.984;2022-08-11T16:43:31;4.10;;;1.10;;
43817;SDS011;29868;47.360;18.984;2022-08-11T16:46:18;2.08;;;0.88;;
43817;SDS011;29868;47.360;18.984;2022-08-11T16:49:05;3.08;;;0.90;;
43817;SDS011;29868;47.360;18.984;2022-08-11T16:51:32;2.63;;;0.85;;
43817;SDS011;29868;47.360;18.984;2022-08-11T16:53:58;1.83;;;0.80;;
43817;SDS011;29868;47.360;18.984;2022-08-11T16:56:31;3.13;;;0.98;;
43817;SDS011;29868;47.360;18.984;2022-08-11T16:59:01;1.80;;;1.10;;
43817;SDS011;29868;47.360;18.984;2022-08-11T17:02:15;2.33;;;1.10;;
43817;SDS011;29868;47.360;18.984;2022-08-11T17:07:21;3.47;;;1.10;;
43817;SDS011;29868;47.360;18.984;2022-08-11T17:10:08;8.00;;;1.20;;
43817;SDS011;29868;47.360;18.984;2022-08-11T17:12:58;1.42;;;1.00;;
43817;SDS011;29868;47.360;18.984;2022-08-11T17:15:36;3.95;;;1.20;;
43817;SDS011;29868;47.360;18.984;2022-08-11T17:18:24;3.42;;;0.98;;
43817;SDS011;29868;47.360;18.984;2022-08-11T17:21:30;2.50;;;0.93;;
43817;SDS011;29868;47.360;18.984;2022-08-11T17:24:00;1.23;;;0.80;;
43817;SDS011;29868;47.360;18.984;2022-08-11T17:26:40;1.30;;;1.00;;
43817;SDS011;29868;47.360;18.984;2022-08-11T17:32:05;3.85;;;1.00;;
43817;SDS011;29868;47.360;18.984;2022-08-11T17:35:05;1.20;;;0.90;;
43817;SDS011;29868;47.360;18.984;2022-08-11T17:37:52;2.50;;;1.10;;
43817;SDS011;29868;47.360;18.984;2022-08-11T17:40:21;3.83;;;1.20;;
43817;SDS011;29868;47.360;18.984;2022-08-11T17:42:50;4.22;;;1.10;;
43817;SDS011;29868;47.360;18.984;2022-08-11T17:45:37;3.40;;;1.00;;
43817;SDS011;29868;47.360;18.984;2022-08-11T17:48:23;4.65;;;1.10;;
43817;SDS011;29868;47.360;18.984;2022-08-11T17:51:13;3.67;;;1.30;;
43817;SDS011;29868;47.360;18.984;2022-08-11T17:53:58;4.10;;;1.00;;
43817;SDS011;29868;47.360;18.984;2022-08-11T17:56:42;4.25;;;1.10;;
43817;SDS011;29868;47.360;18.984;2022-08-11T17:59:28;4.75;;;0.90;;
43817;SDS011;29868;47.360;18.984;2022-08-11T18:02:14;2.47;;;1.00;;
43817;SDS011;29868;47.360;18.984;2022-08-11T18:05:01;1.65;;;1.00;;
43817;SDS011;29868;47.360;18.984;2022-08-11T18:07:29;4.88;;;1.00;;
43817;SDS011;29868;47.360;18.984;2022-08-11T18:10:14;2.67;;;0.93;;
43817;SDS011;29868;47.360;18.984;2022-08-11T18:12:58;4.72;;;0.88;;
43817;SDS011;29868;47.360;18.984;2022-08-11T18:15:43;3.95;;;1.00;;
43817;SDS011;29868;47.360;18.984;2022-08-11T18:18:27;1.63;;;0.88;;
43817;SDS011;29868;47.360;18.984;2022-08-11T18:21:13;1.92;;;1.00;;
43817;SDS011;29868;47.360;18.984;2022-08-11T18:23:59;3.45;;;1.10;;
43817;SDS011;29868;47.360;18.984;2022-08-11T18:26:47;2.95;;;0.90;;
43817;SDS011;29868;47.360;18.984;2022-08-11T18:29:34;1.63;;;0.80;;
43817;SDS011;29868;47.360;18.984;2022-08-11T18:32:23;4.07;;;1.00;;
43817;SDS011;29868;47.360;18.984;2022-08-11T18:35:10;1.60;;;1.00;;
43817;SDS011;29868;47.360;18.984;2022-08-11T18:37:55;2.10;;;0.90;;
43817;SDS011;29868;47.360;18.984;2022-08-11T18:40:43;1.45;;;0.80;;
43817;SDS011;29868;47.360;18.984;2022-08-11T18:43:29;3.90;;;1.10;;
43817;SDS011;29868;47.360;18.984;2022-08-11T18:46:17;2.15;;;1.10;;
43817;SDS011;29868;47.360;18.984;2022-08-11T18:49:14;1.95;;;1.00;;
43817;SDS011;29868;47.360;18.984;2022-08-11T18:52:03;3.47;;;0.90;;
43817;SDS011;29868;47.360;18.984;2022-08-11T18:54:48;1.17;;;0.90;;
43817;SDS011;29868;47.360;18.984;2022-08-11T18:57:37;3.58;;;0.95;;
43817;SDS011;29868;47.360;18.984;2022-08-11T19:00:23;2.08;;;0.80;;
43817;SDS011;29868;47.360;18.984;2022-08-11T19:03:10;1.42;;;0.90;;
43817;SDS011;29868;47.360;18.984;2022-08-11T19:06:00;1.73;;;1.05;;
43817;SDS011;29868;47.360;18.984;2022-08-11T19:08:48;1.85;;;1.10;;
43817;SDS011;29868;47.360;18.984;2022-08-11T19:11:36;1.55;;;0.90;;
43817;SDS011;29868;47.360;18.984;2022-08-11T19:14:21;2.03;;;0.82;;
43817;SDS011;29868;47.360;18.984;2022-08-11T19:17:07;1.83;;;0.90;;
43817;SDS011;29868;47.360;18.984;2022-08-11T19:19:53;1.52;;;0.93;;
43817;SDS011;29868;47.360;18.984;2022-08-11T19:22:40;1.83;;;1.00;;
43817;SDS011;29868;47.360;18.984;2022-08-11T19:25:26;1.20;;;0.85;;
43817;SDS011;29868;47.360;18.984;2022-08-11T19:28:13;4.63;;;1.13;;
43817;SDS011;29868;47.360;18.984;2022-08-11T19:30:59;1.10;;;0.90;;
43817;SDS011;29868;47.360;18.984;2022-08-11T19:33:43;3.33;;;1.15;;
43817;SDS011;29868;47.360;18.984;2022-08-11T19:36:29;3.15;;;1.17;;
43817;SDS011;29868;47.360;18.984;2022-08-11T19:41:58;2.40;;;1.20;;
43817;SDS011;29868;47.360;18.984;2022-08-11T19:47:27;1.38;;;0.95;;
43817;SDS011;29868;47.360;18.984;2022-08-11T19:50:14;2.63;;;1.20;;
43817;SDS011;29868;47.360;18.984;2022-08-11T19:52:58;2.00;;;1.20;;
43817;SDS011;29868;47.360;18.984;2022-08-11T19:55:47;3.05;;;1.10;;
43817;SDS011;29868;47.360;18.984;2022-08-11T19:58:34;2.20;;;1.13;;
43817;SDS011;29868;47.360;18.984;2022-08-11T20:01:19;3.45;;;1.13;;
43817;SDS011;29868;47.360;18.984;2022-08-11T20:04:04;3.22;;;1.20;;
43817;SDS011;29868;47.360;18.984;2022-08-11T20:06:49;1.83;;;1.00;;
43817;SDS011;29868;47.360;18.984;2022-08-11T20:09:35;3.40;;;1.20;;
43817;SDS011;29868;47.360;18.984;2022-08-11T20:12:21;3.03;;;1.20;;
43817;SDS011;29868;47.360;18.984;2022-08-11T20:15:07;4.95;;;1.40;;
43817;SDS011;29868;47.360;18.984;2022-08-11T20:17:53;1.83;;;1.15;;
43817;SDS011;29868;47.360;18.984;2022-08-11T20:20:38;3.25;;;1.60;;
43817;SDS011;29868;47.360;18.984;2022-08-11T20:23:22;6.85;;;1.75;;
43817;SDS011;29868;47.360;18.984;2022-08-11T20:26:08;3.72;;;1.33;;
43817;SDS011;29868;47.360;18.984;2022-08-11T20:28:52;2.00;;;1.17;;
43817;SDS011;29868;47.360;18.984;2022-08-11T20:31:38;3.05;;;1.50;;
43817;SDS011;29868;47.360;18.984;2022-08-11T20:34:23;2.42;;;1.63;;
43817;SDS011;29868;47.360;18.984;2022-08-11T20:37:08;2.78;;;1.73;;
43817;SDS011;29868;47.360;18.984;2022-08-11T20:39:53;2.97;;;1.50;;
43817;SDS011;29868;47.360;18.984;2022-08-11T20:42:39;4.18;;;1.80;;
43817;SDS011;29868;47.360;18.984;2022-08-11T20:45:25;3.20;;;1.88;;
43817;SDS011;29868;47.360;18.984;2022-08-11T20:48:10;2.75;;;1.77;;
43817;SDS011;29868;47.360;18.984;2022-08-11T20:50:56;3.55;;;2.03;;
43817;SDS011;29868;47.360;18.984;2022-08-11T20:53:42;2.33;;;1.50;;
43817;SDS011;29868;47.360;18.984;2022-08-11T20:56:29;2.30;;;1.50;;
43817;SDS011;29868;47.360;18.984;2022-08-11T20:59:17;3.03;;;1.58;;
43817;SDS011;29868;47.360;18.984;2022-08-11T21:02:03;2.53;;;1.27;;
43817;SDS011;29868;47.360;18.984;2022-08-11T21:04:49;2.20;;;1.30;;
43817;SDS011;29868;47.360;18.984;2022-08-11T21:07:34;3.85;;;1.20;;
43817;SDS011;29868;47.360;18.984;2022-08-11T21:10:20;1.98;;;1.15;;
43817;SDS011;29868;47.360;18.984;2022-08-11T21:13:09;3.58;;;1.23;;
43817;SDS011;29868;47.360;18.984;2022-08-11T21:16:02;2.65;;;1.20;;
43817;SDS011;29868;47.360;18.984;2022-08-11T21:18:48;2.80;;;1.10;;
43817;SDS011;29868;47.360;18.984;2022-08-11T21:21:33;1.67;;;1.10;;
43817;SDS011;29868;47.360;18.984;2022-08-11T21:24:19;2.45;;;1.30;;
43817;SDS011;29868;47.360;18.984;2022-08-11T21:27:08;2.13;;;1.20;;
43817;SDS011;29868;47.360;18.984;2022-08-11T21:29:57;1.25;;;1.00;;
43817;SDS011;29868;47.360;18.984;2022-08-11T21:32:44;2.10;;;1.13;;
43817;SDS011;29868;47.360;18.984;2022-08-11T21:35:28;1.58;;;1.05;;
43817;SDS011;29868;47.360;18.984;2022-08-11T21:38:13;1.90;;;1.10;;
43817;SDS011;29868;47.360;18.984;2022-08-11T21:40:57;2.58;;;1.10;;
43817;SDS011;29868;47.360;18.984;2022-08-11T21:43:42;2.03;;;1.20;;
43817;SDS011;29868;47.360;18.984;2022-08-11T21:46:29;2.60;;;1.10;;
43817;SDS011;29868;47.360;18.984;2022-08-11T21:49:14;1.63;;;1.00;;
43817;SDS011;29868;47.360;18.984;2022-08-11T21:52:01;2.33;;;1.17;;
43817;SDS011;29868;47.360;18.984;2022-08-11T21:54:45;3.50;;;1.10;;
43817;SDS011;29868;47.360;18.984;2022-08-11T21:57:30;1.85;;;1.00;;
43817;SDS011;29868;47.360;18.984;2022-08-11T22:02:58;2.45;;;1.65;;
43817;SDS011;29868;47.360;18.984;2022-08-11T22:05:43;3.03;;;1.35;;
43817;SDS011;29868;47.360;18.984;2022-08-11T22:08:28;1.70;;;1.10;;
43817;SDS011;29868;47.360;18.984;2022-08-11T22:11:13;2.83;;;1.20;;
43817;SDS011;29868;47.360;18.984;2022-08-11T22:13:59;2.00;;;1.02;;
43817;SDS011;29868;47.360;18.984;2022-08-11T22:16:43;3.20;;;1.10;;
43817;SDS011;29868;47.360;18.984;2022-08-11T22:19:27;1.80;;;1.25;;
43817;SDS011;29868;47.360;18.984;2022-08-11T22:22:12;2.53;;;1.02;;
43817;SDS011;29868;47.360;18.984;2022-08-11T22:24:56;1.70;;;1.02;;
43817;SDS011;29868;47.360;18.984;2022-08-11T22:27:41;3.25;;;1.17;;
43817;SDS011;29868;47.360;18.984;2022-08-11T22:30:26;1.55;;;0.95;;
43817;SDS011;29868;47.360;18.984;2022-08-11T22:33:09;1.83;;;1.10;;
43817;SDS011;29868;47.360;18.984;2022-08-11T22:38:39;1.48;;;0.90;;
43817;SDS011;29868;47.360;18.984;2022-08-11T22:41:25;1.23;;;0.93;;
43817;SDS011;29868;47.360;18.984;2022-08-11T22:44:09;1.73;;;0.80;;
43817;SDS011;29868;47.360;18.984;2022-08-11T22:46:57;1.35;;;0.90;;